createdAt,value
2019-03-29T00:00:57.053Z,99571.81
2019-03-29T00:03:27.182Z,99569.89
2019-03-29T00:05:57.406Z,99570.72
2019-03-29T00:08:27.618Z,99568.25
2019-03-29T00:10:57.996Z,99562.73
2019-03-29T00:13:28.176Z,99573.23
2019-03-29T00:15:59.978Z,99575.41
2019-03-29T00:18:30.306Z,99566.33
2019-03-29T00:21:00.681Z,99567.96
2019-03-29T00:23:31.005Z,99565.78
2019-03-29T00:26:01.336Z,99565.20
2019-03-29T00:28:31.557Z,99558.30
2019-03-29T00:31:01.617Z,99559.97
2019-03-29T00:33:31.775Z,99561.36
2019-03-29T00:36:01.963Z,99550.06
2019-03-29T00:38:32.103Z,99548.39
2019-03-29T00:41:02.292Z,99548.39
2019-03-29T00:43:32.386Z,99536.80
2019-03-29T00:46:02.578Z,99536.80
2019-03-29T00:48:35.793Z,99532.41
2019-03-29T00:51:06.322Z,99532.67
2019-03-29T00:53:36.532Z,99536.26
2019-03-29T00:56:06.621Z,99535.42
2019-03-29T00:58:36.967Z,99516.39
2019-03-29T01:01:07.215Z,99519.99
2019-03-29T01:03:37.440Z,99522.46
2019-03-29T01:06:07.762Z,99517.52
2019-03-29T01:08:38.134Z,99515.85
2019-03-29T01:11:08.710Z,99512.55
2019-03-29T01:13:39.213Z,99508.41
2019-03-29T01:16:09.666Z,99503.77
2019-03-29T01:18:39.889Z,99505.98
2019-03-29T01:21:10.075Z,99493.56
2019-03-29T01:23:40.230Z,99488.05
2019-03-29T01:26:10.452Z,99490.27
2019-03-29T01:28:40.880Z,99483.08
2019-03-29T01:31:11.203Z,99488.38
2019-03-29T01:33:41.366Z,99479.81
2019-03-29T01:36:12.261Z,99480.90
2019-03-29T01:38:42.487Z,99472.91
2019-03-29T01:41:12.810Z,99470.16
2019-03-29T01:43:43.095Z,99456.91
2019-03-29T01:46:13.357Z,99456.07
2019-03-29T01:48:43.894Z,99461.05
2019-03-29T01:51:14.269Z,99464.93
2019-03-29T01:53:44.460Z,99461.63
2019-03-29T01:56:14.948Z,99451.94
2019-03-29T01:58:45.575Z,99460.20
2019-03-29T02:01:15.815Z,99453.31
2019-03-29T02:03:46.012Z,99450.30
2019-03-29T02:06:16.773Z,99444.23
2019-03-29T02:08:47.201Z,99438.72
2019-03-29T02:11:17.534Z,99443.40
2019-03-29T02:13:47.745Z,99432.36
2019-03-29T02:16:17.956Z,99434.03
2019-03-29T02:18:48.098Z,99439.55
2019-03-29T02:21:19.456Z,99440.36
2019-03-29T02:23:49.644Z,99441.73
2019-03-29T02:26:19.880Z,99437.05
2019-03-29T02:28:51.229Z,99433.73
2019-03-29T02:31:25.617Z,99434.54
2019-03-29T02:33:53.363Z,99430.98
2019-03-29T02:36:23.583Z,99426.01
2019-03-29T02:38:55.974Z,99427.09
2019-03-29T02:41:26.032Z,99418.28
2019-03-29T02:43:56.280Z,99426.02
2019-03-29T02:46:26.475Z,99418.58
2019-03-29T02:48:57.029Z,99424.09
2019-03-29T02:51:27.266Z,99416.65
2019-03-29T02:53:57.385Z,99414.97
2019-03-29T02:56:27.771Z,99410.84
2019-03-29T02:58:58.205Z,99406.70
2019-03-29T03:01:28.420Z,99403.40
2019-03-29T03:03:58.750Z,99397.34
2019-03-29T03:06:29.015Z,99404.78
2019-03-29T03:09:12.468Z,99396.22
2019-03-29T03:11:31.667Z,99396.22
2019-03-29T03:14:01.988Z,99391.81
2019-03-29T03:16:32.562Z,99383.80
2019-03-29T03:19:02.953Z,99380.80
2019-03-29T03:21:33.275Z,99376.89
2019-03-29T03:24:03.685Z,99376.05
2019-03-29T03:26:33.990Z,99364.23
2019-03-29T03:29:04.458Z,99370.53
2019-03-29T03:31:34.882Z,99365.86
2019-03-29T03:34:05.109Z,99365.32
2019-03-29T03:36:35.833Z,99363.39
2019-03-29T03:39:07.783Z,99366.94
2019-03-29T03:41:38.225Z,99366.99
2019-03-29T03:44:08.654Z,99374.19
2019-03-29T03:46:38.783Z,99365.62
2019-03-29T03:49:09.038Z,99379.12
2019-03-29T03:51:39.522Z,99371.42
2019-03-29T03:54:09.849Z,99373.89
2019-03-29T03:56:40.051Z,99371.42
2019-03-29T03:59:10.228Z,99373.10
2019-03-29T04:01:40.413Z,99370.39
2019-03-29T04:04:10.659Z,99371.19
2019-03-29T04:06:40.909Z,99372.81
2019-03-29T04:09:11.135Z,99378.38
2019-03-29T04:11:41.408Z,99373.11
2019-03-29T04:14:11.836Z,99376.70
2019-03-29T04:16:42.195Z,99376.69
2019-03-29T04:19:12.376Z,99378.33
2019-03-29T04:21:42.499Z,99371.44
2019-03-29T04:24:12.828Z,99374.19
2019-03-29T04:26:43.043Z,99375.31
2019-03-29T04:29:13.367Z,99369.22
2019-03-29T04:31:43.487Z,99365.33
2019-03-29T04:34:14.124Z,99373.05
2019-03-29T04:36:44.490Z,99368.57
2019-03-29T04:39:14.773Z,99357.28
2019-03-29T04:41:45.298Z,99358.91
2019-03-29T04:44:15.419Z,99356.44
2019-03-29T04:46:45.534Z,99365.55
2019-03-29T04:49:15.964Z,99367.73
2019-03-29T04:51:46.395Z,99361.14
2019-03-29T04:54:16.611Z,99367.48
2019-03-29T04:56:46.836Z,99365.27
2019-03-29T04:59:17.044Z,99362.27
2019-03-29T05:01:47.251Z,99362.52
2019-03-29T05:04:17.498Z,99353.44
2019-03-29T05:06:47.788Z,99353.44
2019-03-29T05:09:18.650Z,99355.62
2019-03-29T05:11:49.056Z,99352.86
2019-03-29T05:14:19.224Z,99356.45
2019-03-29T05:16:49.374Z,99353.19
2019-03-29T05:19:19.735Z,99354.03
2019-03-29T05:21:50.010Z,99359.27
2019-03-29T05:24:20.295Z,99353.51
2019-03-29T05:26:50.500Z,99355.67
2019-03-29T05:29:20.859Z,99349.91
2019-03-29T05:31:53.587Z,99346.06
2019-03-29T05:34:22.962Z,99337.55
2019-03-29T05:36:53.198Z,99343.84
2019-03-29T05:39:23.426Z,99338.57
2019-03-29T05:41:53.584Z,99334.44
2019-03-29T05:44:24.024Z,99338.56
2019-03-29T05:46:54.182Z,99330.53
2019-03-29T05:49:24.409Z,99329.16
2019-03-29T05:51:54.718Z,99322.25
2019-03-29T05:54:24.987Z,99322.25
2019-03-29T05:56:55.285Z,99325.31
2019-03-29T05:59:25.649Z,99328.63
2019-03-29T06:01:55.892Z,99329.20
2019-03-29T06:04:26.324Z,99329.47
2019-03-29T06:06:57.459Z,99339.66
2019-03-29T06:09:27.581Z,99335.56
2019-03-29T06:11:58.004Z,99333.64
2019-03-29T06:14:28.329Z,99326.75
2019-03-29T06:16:58.657Z,99331.42
2019-03-29T06:19:28.987Z,99327.28
2019-03-29T06:21:59.240Z,99321.77
2019-03-29T06:24:29.458Z,99318.47
2019-03-29T06:27:00.058Z,99328.38
2019-03-29T06:29:30.384Z,99321.28
2019-03-29T06:32:00.708Z,99321.28
2019-03-29T06:34:30.926Z,99325.08
2019-03-29T06:37:01.186Z,99325.37
2019-03-29T06:39:31.480Z,99328.95
2019-03-29T06:42:01.783Z,99334.73
2019-03-29T06:44:32.108Z,99331.98
2019-03-29T06:47:02.345Z,99337.23
2019-03-29T06:49:32.640Z,99330.05
2019-03-29T06:52:02.799Z,99334.98
2019-03-29T06:54:33.111Z,99327.83
2019-03-29T06:57:03.437Z,99331.42
2019-03-29T06:59:33.766Z,99327.00
2019-03-29T07:02:04.088Z,99326.16
2019-03-29T07:04:34.322Z,99327.53
2019-03-29T07:07:04.635Z,99329.74
2019-03-29T07:09:34.859Z,99321.19
2019-03-29T07:12:05.162Z,99320.10
2019-03-29T07:14:35.509Z,99317.63
2019-03-29T07:17:05.729Z,99318.72
2019-03-29T07:19:35.953Z,99318.17
2019-03-29T07:22:06.296Z,99311.81
2019-03-29T07:24:36.804Z,99307.94
2019-03-29T07:27:07.026Z,99307.69
2019-03-29T07:29:37.291Z,99306.02
2019-03-29T07:32:07.501Z,99298.57
2019-03-29T07:34:37.803Z,99299.11
2019-03-29T07:37:08.227Z,99294.72
2019-03-29T07:39:38.288Z,99294.97
2019-03-29T07:42:08.566Z,99289.20
2019-03-29T07:44:39.012Z,99285.31
2019-03-29T07:47:09.547Z,99280.64
2019-03-29T07:49:39.958Z,99279.02
2019-03-29T07:52:10.281Z,99274.30
2019-03-29T07:54:40.497Z,99266.84
2019-03-29T07:57:10.824Z,99261.37
2019-03-29T07:59:41.023Z,99264.32
2019-03-29T08:02:11.161Z,99264.06
2019-03-29T08:04:41.486Z,99256.58
2019-03-29T08:07:11.766Z,99255.20
2019-03-29T08:09:42.035Z,99261.25
2019-03-29T08:12:12.461Z,99252.69
2019-03-29T08:14:42.786Z,99246.09
2019-03-29T08:17:13.109Z,99248.54
2019-03-29T08:19:43.330Z,99242.19
2019-03-29T08:22:13.450Z,99236.67
2019-03-29T08:24:43.672Z,99230.63
2019-03-29T08:27:13.898Z,99220.72
2019-03-29T08:29:44.429Z,99214.67
2019-03-29T08:32:14.649Z,99213.53
2019-03-29T08:34:44.975Z,99213.30
2019-03-29T08:37:15.341Z,99212.16
2019-03-29T08:39:45.805Z,99212.20
2019-03-29T08:42:18.527Z,99211.89
2019-03-29T08:44:48.432Z,99208.59
2019-03-29T08:47:18.743Z,99203.63
2019-03-29T08:49:48.941Z,99194.27
2019-03-29T08:52:19.292Z,99193.44
2019-03-29T08:54:51.217Z,99189.84
2019-03-29T08:57:21.600Z,99181.85
2019-03-29T08:59:51.853Z,99173.03
2019-03-29T09:02:24.888Z,99164.47
2019-03-29T09:04:54.183Z,99160.31
2019-03-29T09:07:24.416Z,99163.08
2019-03-29T09:09:54.643Z,99160.33
2019-03-29T09:12:24.962Z,99159.80
2019-03-29T09:14:55.194Z,99155.87
2019-03-29T09:17:25.516Z,99163.88
2019-03-29T09:19:55.703Z,99156.97
2019-03-29T09:22:25.956Z,99162.23
2019-03-29T09:24:56.149Z,99159.19
2019-03-29T09:27:26.963Z,99166.36
2019-03-29T09:29:57.336Z,99168.55
2019-03-29T09:32:27.661Z,99171.58
2019-03-29T09:34:57.990Z,99183.19
2019-03-29T09:37:28.721Z,99184.55
2019-03-29T09:39:58.879Z,99184.30
2019-03-29T09:42:30.212Z,99176.02
2019-03-29T09:45:00.670Z,99179.27
2019-03-29T09:47:38.257Z,99168.53
2019-03-29T09:50:03.132Z,99175.70
2019-03-29T09:52:33.488Z,99171.80
2019-03-29T09:55:03.757Z,99155.18
2019-03-29T09:57:37.708Z,99152.44
2019-03-29T10:00:19.233Z,99154.40
2019-03-29T10:02:57.215Z,99159.63
2019-03-29T10:05:27.434Z,99140.87
2019-03-29T10:07:59.339Z,99132.33
2019-03-29T10:10:29.774Z,99127.30
2019-03-29T10:13:00.031Z,99124.31
2019-03-29T10:15:30.312Z,99126.80
2019-03-29T10:18:00.552Z,99119.38
2019-03-29T10:20:31.135Z,99125.99
2019-03-29T10:23:01.605Z,99125.14
2019-03-29T10:25:31.818Z,99121.86
2019-03-29T10:28:02.060Z,99122.39
2019-03-29T10:30:37.214Z,99123.52
2019-03-29T10:33:07.507Z,99126.52
2019-03-29T10:35:50.610Z,99131.52
2019-03-29T10:38:09.672Z,99130.13
2019-03-29T10:40:39.914Z,99133.19
2019-03-29T10:43:10.233Z,99130.43
2019-03-29T10:45:40.921Z,99130.45
2019-03-29T10:48:11.417Z,99123.84
2019-03-29T10:50:41.631Z,99127.13
2019-03-29T10:53:11.903Z,99130.73
2019-03-29T10:55:42.167Z,99130.33
2019-03-29T10:58:12.664Z,99132.83
2019-03-29T11:00:42.845Z,99125.66
2019-03-29T11:03:13.144Z,99119.02
2019-03-29T11:05:43.374Z,99108.27
2019-03-29T11:08:13.757Z,99118.18
2019-03-29T11:10:44.143Z,99109.14
2019-03-29T11:13:14.705Z,99110.48
2019-03-29T11:15:45.192Z,99117.31
2019-03-29T11:18:15.339Z,99118.18
2019-03-29T11:20:45.698Z,99109.37
2019-03-29T11:23:15.926Z,99103.07
2019-03-29T11:25:48.557Z,99102.24
2019-03-29T11:28:18.073Z,99097.02
2019-03-29T11:30:48.398Z,99093.73
2019-03-29T11:33:18.792Z,99100.91
2019-03-29T11:35:49.163Z,99100.38
2019-03-29T11:38:19.659Z,99090.95
2019-03-29T11:40:49.879Z,99084.91
2019-03-29T11:43:26.467Z,99086.83
2019-03-29T11:45:52.063Z,99094.31
2019-03-29T11:48:22.285Z,99092.66
2019-03-29T11:50:52.545Z,99093.73
2019-03-29T11:53:22.765Z,99097.88
2019-03-29T11:55:52.970Z,99097.62
2019-03-29T11:58:23.199Z,99097.62
2019-03-29T12:00:53.470Z,99091.58
2019-03-29T12:03:23.870Z,99090.17
2019-03-29T12:05:54.063Z,99095.39
2019-03-29T12:08:24.545Z,99088.81
2019-03-29T12:10:54.649Z,99079.69
2019-03-29T12:13:24.872Z,99076.08
2019-03-29T12:15:55.060Z,99083.00
2019-03-29T12:18:25.340Z,99073.87
2019-03-29T12:20:55.507Z,99075.25
2019-03-29T12:23:25.748Z,99068.10
2019-03-29T12:25:56.144Z,99067.00
2019-03-29T12:28:26.298Z,99067.27
2019-03-29T12:30:56.698Z,99069.43
2019-03-29T12:33:26.990Z,99071.34
2019-03-29T12:35:57.118Z,99063.38
2019-03-29T12:38:27.355Z,99066.14
2019-03-29T12:41:00.704Z,99069.75
2019-03-29T12:43:33.032Z,99071.13
2019-03-29T12:46:03.315Z,99070.86
2019-03-29T12:48:33.517Z,99079.69
2019-03-29T12:51:04.182Z,99101.71
2019-03-29T12:53:35.215Z,99105.90
2019-03-29T12:56:05.492Z,99102.61
2019-03-29T12:58:35.769Z,99091.50
2019-03-29T13:01:06.021Z,99096.45
2019-03-29T13:03:36.368Z,99092.88
2019-03-29T13:06:06.752Z,99096.77
2019-03-29T13:08:37.226Z,99098.62
2019-03-29T13:11:07.457Z,99094.90
2019-03-29T13:13:37.861Z,99094.90
2019-03-29T13:16:08.499Z,99088.60
2019-03-29T13:18:38.712Z,99085.31
2019-03-29T13:21:09.281Z,99081.19
2019-03-29T13:23:39.403Z,99082.62
2019-03-29T13:26:09.735Z,99078.48
2019-03-29T13:28:40.055Z,99075.20
2019-03-29T13:31:10.379Z,99064.70
2019-03-29T13:33:40.816Z,99066.09
2019-03-29T13:36:11.240Z,99055.66
2019-03-29T13:38:41.721Z,99058.95
2019-03-29T13:41:12.292Z,99052.35
2019-03-29T13:43:42.737Z,99062.25
2019-03-29T13:46:13.011Z,99051.83
2019-03-29T13:48:43.274Z,99044.09
2019-03-29T13:51:13.710Z,99039.41
2019-03-29T13:53:43.994Z,99036.92
2019-03-29T13:56:14.261Z,99039.73
2019-03-29T13:58:44.944Z,99042.73
2019-03-29T14:01:15.179Z,99044.96
2019-03-29T14:03:45.625Z,99039.20
2019-03-29T14:06:16.017Z,99038.90
2019-03-29T14:08:46.524Z,99039.15
2019-03-29T14:11:16.928Z,99032.30
2019-03-29T14:13:47.434Z,99025.66
2019-03-29T14:16:17.712Z,99027.04
2019-03-29T14:18:47.953Z,99011.98
2019-03-29T14:21:18.322Z,99011.98
2019-03-29T14:23:48.739Z,99025.41
2019-03-29T14:26:19.101Z,99028.47
2019-03-29T14:28:49.667Z,99020.75
2019-03-29T14:31:19.902Z,99011.34
2019-03-29T14:33:50.198Z,99011.09
2019-03-29T14:36:20.562Z,99016.86
2019-03-29T14:38:52.421Z,99013.30
2019-03-29T14:41:22.761Z,99020.99
2019-03-29T14:43:53.110Z,99016.30
2019-03-29T14:46:23.755Z,99013.25
2019-03-29T14:48:54.294Z,99008.03
2019-03-29T14:51:26.291Z,98997.02
2019-03-29T14:54:00.427Z,98991.23
2019-03-29T14:56:31.644Z,98980.45
2019-03-29T14:59:01.413Z,98979.63
2019-03-29T15:01:34.516Z,98970.56
2019-03-29T15:04:04.891Z,98965.06
2019-03-29T15:06:35.410Z,98957.63
2019-03-29T15:09:07.080Z,98959.25
2019-03-29T15:11:38.907Z,98956.47
2019-03-29T15:14:09.541Z,98950.73
2019-03-29T15:16:42.641Z,98944.63
2019-03-29T15:19:12.871Z,98936.36
2019-03-29T15:21:43.093Z,98930.30
2019-03-29T15:24:13.274Z,98934.73
2019-03-29T15:26:43.683Z,98933.35
2019-03-29T15:29:14.444Z,98940.00
2019-03-29T15:31:44.532Z,98930.59
2019-03-29T15:34:14.723Z,98931.14
2019-03-29T15:36:44.901Z,98924.83
2019-03-29T15:39:15.106Z,98911.84
2019-03-29T15:41:45.487Z,98911.84
2019-03-29T15:44:15.705Z,98896.75
2019-03-29T15:46:46.048Z,98903.02
2019-03-29T15:49:16.296Z,98909.91
2019-03-29T15:51:46.759Z,98916.28
2019-03-29T15:54:16.905Z,98910.47
2019-03-29T15:56:47.232Z,98911.05
2019-03-29T15:59:18.079Z,98911.87
2019-03-29T16:01:48.391Z,98910.77
2019-03-29T16:04:18.530Z,98915.43
2019-03-29T16:06:48.839Z,98908.53
2019-03-29T16:09:19.163Z,98912.67
2019-03-29T16:11:49.532Z,98907.41
2019-03-29T16:14:19.930Z,98909.59
2019-03-29T16:16:50.147Z,98908.78
2019-03-29T16:19:20.761Z,98915.12
2019-03-29T16:21:51.079Z,98921.19
2019-03-29T16:24:21.270Z,98928.61
2019-03-29T16:26:51.456Z,98930.05
2019-03-29T16:29:21.652Z,98933.87
2019-03-29T16:31:51.981Z,98929.47
2019-03-29T16:34:22.207Z,98929.51
2019-03-29T16:36:52.528Z,98942.70
2019-03-29T16:39:22.669Z,98945.23
2019-03-29T16:41:52.866Z,98944.38
2019-03-29T16:44:23.206Z,98941.61
2019-03-29T16:46:55.466Z,98941.09
2019-03-29T16:49:25.682Z,98940.00
2019-03-29T16:51:56.026Z,98947.98
2019-03-29T16:54:26.254Z,98937.78
2019-03-29T16:56:56.661Z,98946.89
2019-03-29T16:59:26.917Z,98939.70
2019-03-29T17:01:57.461Z,98936.11
2019-03-29T17:04:28.048Z,98934.20
2019-03-29T17:06:58.283Z,98931.97
2019-03-29T17:09:28.736Z,98929.26
2019-03-29T17:11:58.919Z,98932.56
2019-03-29T17:14:29.126Z,98924.83
2019-03-29T17:16:59.401Z,98925.61
2019-03-29T17:19:29.652Z,98927.30
2019-03-29T17:21:59.985Z,98937.23
2019-03-29T17:24:30.269Z,98945.50
2019-03-29T17:27:00.424Z,98953.23
2019-03-29T17:29:30.547Z,98959.30
2019-03-29T17:32:00.938Z,98961.98
2019-03-29T17:34:31.061Z,98968.27
2019-03-29T17:37:01.346Z,98972.72
2019-03-29T17:39:32.310Z,98972.41
2019-03-29T17:42:02.511Z,98979.00
2019-03-29T17:44:32.770Z,98976.83
2019-03-29T17:47:03.023Z,98977.36
2019-03-29T17:49:34.883Z,98971.56
2019-03-29T17:52:23.123Z,98979.59
2019-03-29T17:54:55.070Z,98971.84
2019-03-29T17:57:25.395Z,98975.35
2019-03-29T17:59:55.814Z,98968.38
2019-03-29T18:02:26.371Z,98969.69
2019-03-29T18:04:56.523Z,98952.27
2019-03-29T18:07:51.358Z,98958.34
2019-03-29T18:10:27.589Z,98958.30
2019-03-29T18:12:58.269Z,98958.02
2019-03-29T18:15:28.593Z,98957.88
2019-03-29T18:17:59.013Z,98950.88
2019-03-29T18:20:29.197Z,98941.13
2019-03-29T18:22:59.296Z,98942.05
2019-03-29T18:25:29.576Z,98947.48
2019-03-29T18:27:59.908Z,98944.91
2019-03-29T18:30:38.694Z,98942.49
2019-03-29T18:33:08.897Z,98935.20
2019-03-29T18:35:39.175Z,98924.85
2019-03-29T18:38:09.391Z,98928.84
2019-03-29T18:40:40.414Z,98931.37
2019-03-29T18:43:14.899Z,98935.86
2019-03-29T18:45:45.580Z,98926.77
2019-03-29T18:48:15.813Z,98927.84
2019-03-29T18:50:46.424Z,98927.05
2019-03-29T18:53:16.629Z,98926.77
2019-03-29T18:55:48.630Z,98932.30
2019-03-29T18:58:20.499Z,98925.94
2019-03-29T19:00:51.220Z,98929.88
2019-03-29T19:03:23.598Z,98932.42
2019-03-29T19:05:53.962Z,98932.15
2019-03-29T19:08:24.339Z,98934.42
2019-03-29T19:10:54.713Z,98916.23
2019-03-29T19:13:26.731Z,98901.91
2019-03-29T19:15:57.051Z,98895.52
2019-03-29T19:18:29.973Z,98896.00
2019-03-29T19:21:01.582Z,98892.14
2019-03-29T19:23:32.098Z,98905.02
2019-03-29T19:26:04.148Z,98900.36
2019-03-29T19:28:34.509Z,98901.98
2019-03-29T19:31:04.673Z,98899.22
2019-03-29T19:33:35.027Z,98886.79
2019-03-29T19:36:05.264Z,98882.41
2019-03-29T19:38:35.592Z,98874.05
2019-03-29T19:41:23.711Z,98866.94
2019-03-29T19:43:57.614Z,98853.71
2019-03-29T19:46:27.902Z,98844.53
2019-03-29T19:48:58.154Z,98847.02
2019-03-29T19:51:28.286Z,98842.87
2019-03-29T19:54:07.100Z,98839.62
2019-03-29T19:56:30.472Z,98814.36
2019-03-29T19:59:00.716Z,98829.65
2019-03-29T20:01:31.215Z,98826.69
2019-03-29T20:04:01.464Z,98830.47
2019-03-29T20:06:31.564Z,98831.08
2019-03-29T20:09:01.769Z,98829.69
2019-03-29T20:11:32.022Z,98835.52
2019-03-29T20:14:02.244Z,98832.45
2019-03-29T20:16:32.441Z,98828.59
2019-03-29T20:19:02.723Z,98835.22
2019-03-29T20:21:32.882Z,98829.93
2019-03-29T20:24:03.063Z,98831.85
2019-03-29T20:26:33.289Z,98832.12
2019-03-29T20:29:03.513Z,98830.73
2019-03-29T20:31:33.794Z,98825.68
2019-03-29T20:34:04.166Z,98828.40
2019-03-29T20:36:34.489Z,98827.52
2019-03-29T20:39:07.007Z,98821.66
2019-03-29T20:41:37.524Z,98817.47
2019-03-29T20:44:07.753Z,98816.59
2019-03-29T20:46:38.317Z,98806.45
2019-03-29T20:49:08.567Z,98807.45
2019-03-29T20:51:38.893Z,98806.17
2019-03-29T20:54:09.166Z,98802.52
2019-03-29T20:56:39.536Z,98802.57
2019-03-29T20:59:11.674Z,98807.59
2019-03-29T21:01:41.916Z,98807.59
2019-03-29T21:04:12.305Z,98806.58
2019-03-29T21:06:44.205Z,98806.34
2019-03-29T21:09:14.387Z,98803.67
2019-03-29T21:11:44.734Z,98790.11
2019-03-29T21:14:14.996Z,98788.77
2019-03-29T21:16:45.477Z,98781.54
2019-03-29T21:19:15.892Z,98773.05
2019-03-29T21:21:43.885Z,98780.17
2019-03-29T21:24:11.089Z,98784.49
2019-03-29T21:26:38.138Z,98778.83
2019-03-29T21:29:05.324Z,98779.11
2019-03-29T21:31:32.580Z,98770.03
2019-03-29T21:33:59.737Z,98767.97
2019-03-29T21:36:27.262Z,98776.84
2019-03-29T21:38:54.462Z,98770.59
2019-03-29T21:41:21.406Z,98777.45
2019-03-29T21:43:48.668Z,98776.36
2019-03-29T21:46:16.098Z,98778.08
2019-03-29T21:48:43.261Z,98774.24
2019-03-29T21:51:10.429Z,98773.36
2019-03-29T21:53:43.791Z,98775.86
2019-03-29T21:56:10.529Z,98774.01
2019-03-29T21:58:37.828Z,98769.97
2019-03-29T22:01:05.211Z,98768.59
2019-03-29T22:03:32.414Z,98766.41
2019-03-29T22:05:59.821Z,98769.52
2019-03-29T22:08:27.147Z,98759.10
2019-03-29T22:10:54.624Z,98759.40
2019-03-29T22:13:21.866Z,98748.28
2019-03-29T22:15:49.280Z,98763.20
2019-03-29T22:18:16.646Z,98759.31
2019-03-29T22:20:49.147Z,98752.45
2019-03-29T22:23:24.249Z,98756.46
2019-03-29T22:25:53.610Z,98755.45
2019-03-29T22:28:20.825Z,98758.38
2019-03-29T22:30:48.130Z,98749.90
2019-03-29T22:33:18.776Z,98746.44
2019-03-29T22:35:46.288Z,98746.25
2019-03-29T22:38:13.770Z,98752.96
2019-03-29T22:40:41.121Z,98742.27
2019-03-29T22:43:08.410Z,98733.23
2019-03-29T22:45:35.661Z,98731.34
2019-03-29T22:48:03.091Z,98728.06
2019-03-29T22:50:33.379Z,98730.05
2019-03-29T22:53:00.877Z,98723.42
2019-03-29T22:55:28.282Z,98729.27
2019-03-29T22:57:55.676Z,98730.96
2019-03-29T23:00:39.309Z,98731.00
2019-03-29T23:03:07.103Z,98726.06
2019-03-29T23:05:36.214Z,98731.64
2019-03-29T23:08:03.731Z,98734.13
2019-03-29T23:10:30.988Z,98726.16
2019-03-29T23:12:58.343Z,98721.77
2019-03-29T23:15:25.453Z,98719.56
2019-03-29T23:17:52.602Z,98723.70
2019-03-29T23:20:19.774Z,98732.31
2019-03-29T23:22:47.564Z,98727.90
2019-03-29T23:25:14.930Z,98717.43
2019-03-29T23:27:42.477Z,98705.55
2019-03-29T23:30:09.630Z,98701.41
2019-03-29T23:32:37.082Z,98698.65
2019-03-29T23:35:05.653Z,98693.44
2019-03-29T23:37:32.916Z,98694.82
2019-03-29T23:39:59.993Z,98685.70
2019-03-29T23:42:27.019Z,98683.50
2019-03-29T23:44:54.145Z,98682.67
2019-03-29T23:47:21.457Z,98690.16
2019-03-29T23:49:48.530Z,98695.42
2019-03-29T23:52:16.042Z,98697.94
2019-03-29T23:54:43.276Z,98703.16
2019-03-29T23:57:10.744Z,98697.39
2019-03-29T23:59:37.881Z,98696.56
